Time;durP1;ratioP1;P1;durP2;ratioP2;P2;SDS_P1;SDS_P2;PMS_P1;PMS_P2;Temp;Humidity;BMP_temperature;BMP_pressure;BME280_temperature;BME280_humidity;BME280_pressure;Samples;Min_cycle;Max_cycle;Signal;HPM_P1;HPM_P2
2021/10/15 00:01:27;;;;;;;5.70;5.28;;;;;;;;;;5082288;28;24911;-62
2021/10/15 00:03:52;;;;;;;5.78;5.28;;;;;;;;;;5070251;28;25050;-61
2021/10/15 00:06:18;;;;;;;5.23;4.83;;;;;;;;;;5071491;28;24419;-61
2021/10/15 00:08:43;;;;;;;5.43;5.03;;;;;;;;;;5086800;28;24436;-61
2021/10/15 00:11:08;;;;;;;5.00;4.60;;;;;;;;;;5070240;28;24509;-62
2021/10/15 00:13:33;;;;;;;5.05;4.65;;;;;;;;;;5069211;28;24446;-62
2021/10/15 00:15:58;;;;;;;5.03;4.63;;;;;;;;;;5075401;28;24414;-62
2021/10/15 00:18:23;;;;;;;4.47;4.18;;;;;;;;;;5069449;28;24449;-61
2021/10/15 00:20:48;;;;;;;4.40;4.10;;;;;;;;;;5070209;28;24780;-62
2021/10/15 00:23:14;;;;;;;4.60;4.30;;;;;;;;;;5072472;28;24420;-62
2021/10/15 00:25:39;;;;;;;5.20;4.80;;;;;;;;;;5074252;28;24421;-61
2021/10/15 00:28:04;;;;;;;4.90;4.50;;;;;;;;;;5082333;28;24476;-61
2021/10/15 00:30:29;;;;;;;4.47;4.18;;;;;;;;;;5082919;28;24480;-60
2021/10/15 00:32:54;;;;;;;4.50;4.20;;;;;;;;;;5080278;28;25085;-60
2021/10/15 00:35:20;;;;;;;4.40;4.00;;;;;;;;;;5082623;28;24491;-60
2021/10/15 00:37:48;;;;;;;4.47;4.10;;;;;;;;;;5070717;28;24782;-60
2021/10/15 00:40:13;;;;;;;4.30;4.00;;;;;;;;;;5071162;28;24625;-60
2021/10/15 00:42:38;;;;;;;3.90;3.60;;;;;;;;;;5066855;28;24509;-61
2021/10/15 00:45:04;;;;;;;5.40;5.00;;;;;;;;;;5071228;28;25147;-61
2021/10/15 00:47:29;;;;;;;4.40;4.10;;;;;;;;;;5077769;28;24509;-61
2021/10/15 00:49:54;;;;;;;5.20;4.70;;;;;;;;;;5075043;28;24426;-61
2021/10/15 00:52:19;;;;;;;4.20;3.90;;;;;;;;;;5069927;28;24924;-61
2021/10/15 00:54:46;;;;;;;4.28;3.97;;;;;;;;;;5086967;28;24513;-61
2021/10/15 00:57:13;;;;;;;4.50;4.20;;;;;;;;;;5078526;28;24945;-61
2021/10/15 00:59:39;;;;;;;4.63;4.32;;;;;;;;;;5073993;28;24542;-61
2021/10/15 01:02:04;;;;;;;5.22;4.80;;;;;;;;;;5069136;28;24446;-61
2021/10/15 01:04:29;;;;;;;4.97;4.57;;;;;;;;;;5070830;28;24419;-61
2021/10/15 01:06:55;;;;;;;4.88;4.47;;;;;;;;;;5069202;28;24429;-61
2021/10/15 01:09:22;;;;;;;5.20;4.80;;;;;;;;;;5081523;28;24961;-61
2021/10/15 01:11:47;;;;;;;4.72;4.32;;;;;;;;;;5069376;28;24701;-61
2021/10/15 01:14:13;;;;;;;4.80;4.40;;;;;;;;;;5087142;28;24426;-61
2021/10/15 01:16:38;;;;;;;4.90;4.50;;;;;;;;;;5085260;28;24843;-62
2021/10/15 01:19:04;;;;;;;5.50;5.10;;;;;;;;;;5071567;28;24411;-61
2021/10/15 01:21:29;;;;;;;4.50;4.17;;;;;;;;;;5071767;28;24841;-61
2021/10/15 01:23:54;;;;;;;4.30;4.00;;;;;;;;;;5085096;28;24426;-61
2021/10/15 01:26:20;;;;;;;5.10;4.70;;;;;;;;;;5084286;28;24509;-61
2021/10/15 01:28:45;;;;;;;5.10;4.70;;;;;;;;;;5078415;28;24422;-61
2021/10/15 01:31:10;;;;;;;4.70;4.30;;;;;;;;;;5076423;28;24544;-61
2021/10/15 01:33:35;;;;;;;4.53;4.23;;;;;;;;;;5079733;28;24438;-61
2021/10/15 01:36:01;;;;;;;4.70;4.40;;;;;;;;;;5077838;28;24564;-61
2021/10/15 01:38:26;;;;;;;4.47;4.17;;;;;;;;;;5082306;28;24441;-61
2021/10/15 01:40:51;;;;;;;4.87;4.50;;;;;;;;;;5088677;28;25312;-60
2021/10/15 01:43:21;;;;;;;5.20;4.80;;;;;;;;;;5084201;28;24426;-61
2021/10/15 01:45:46;;;;;;;4.80;4.40;;;;;;;;;;5078651;28;24953;-61
2021/10/15 01:48:11;;;;;;;4.60;4.30;;;;;;;;;;5078716;28;24469;-60
2021/10/15 01:50:36;;;;;;;4.60;4.30;;;;;;;;;;5081355;28;24484;-61
2021/10/15 01:53:02;;;;;;;5.40;5.00;;;;;;;;;;5084812;28;24484;-61
2021/10/15 01:55:27;;;;;;;4.80;4.40;;;;;;;;;;5073566;28;24418;-61
2021/10/15 01:57:52;;;;;;;4.80;4.40;;;;;;;;;;5077369;28;24772;-61
2021/10/15 02:00:17;;;;;;;6.40;5.90;;;;;;;;;;5071761;28;25062;-61
2021/10/15 02:02:43;;;;;;;5.30;4.90;;;;;;;;;;5072786;28;24512;-61
2021/10/15 02:05:09;;;;;;;5.18;4.78;;;;;;;;;;5078139;28;24533;-61
2021/10/15 02:07:35;;;;;;;5.32;4.65;;;;;;;;;;5071473;28;24483;-60
2021/10/15 02:10:00;;;;;;;5.20;4.80;;;;;;;;;;5077686;28;25017;-61
2021/10/15 02:12:25;;;;;;;4.40;4.10;;;;;;;;;;5075478;28;24858;-61
2021/10/15 02:14:51;;;;;;;5.90;5.40;;;;;;;;;;5076151;28;24422;-61
2021/10/15 02:17:16;;;;;;;5.20;4.80;;;;;;;;;;5071118;28;24422;-61
2021/10/15 02:19:41;;;;;;;4.50;4.20;;;;;;;;;;5076039;28;24754;-60
2021/10/15 02:22:06;;;;;;;5.33;4.87;;;;;;;;;;5078993;28;24978;-61
2021/10/15 02:24:32;;;;;;;5.00;4.50;;;;;;;;;;5086687;28;24975;-61
2021/10/15 02:26:57;;;;;;;5.00;4.60;;;;;;;;;;5077823;28;24418;-61
2021/10/15 02:29:22;;;;;;;5.00;4.60;;;;;;;;;;5086120;28;24769;-61
2021/10/15 02:31:47;;;;;;;5.40;4.90;;;;;;;;;;5088342;28;24991;-61
2021/10/15 02:34:12;;;;;;;4.90;4.40;;;;;;;;;;5079783;28;24553;-61
2021/10/15 02:36:38;;;;;;;5.47;5.07;;;;;;;;;;5085334;28;24418;-61
2021/10/15 02:39:03;;;;;;;5.07;4.67;;;;;;;;;;5087319;28;24521;-61
2021/10/15 02:41:29;;;;;;;5.85;5.35;;;;;;;;;;5081541;28;24410;-61
2021/10/15 02:43:54;;;;;;;5.50;5.10;;;;;;;;;;5086522;28;25014;-62
2021/10/15 02:46:19;;;;;;;6.00;5.50;;;;;;;;;;5085976;28;24478;-62
2021/10/15 02:48:44;;;;;;;5.23;4.83;;;;;;;;;;5087015;28;24974;-62
2021/10/15 02:51:10;;;;;;;5.47;5.07;;;;;;;;;;5083460;28;24414;-62
2021/10/15 02:53:35;;;;;;;4.85;4.47;;;;;;;;;;5083327;28;24430;-62
2021/10/15 02:56:00;;;;;;;5.20;4.80;;;;;;;;;;5081440;28;24498;-62
2021/10/15 02:58:25;;;;;;;5.45;4.97;;;;;;;;;;5073393;28;24430;-61
2021/10/15 03:00:51;;;;;;;5.97;5.57;;;;;;;;;;5069909;28;24460;-62
2021/10/15 03:03:16;;;;;;;5.90;5.40;;;;;;;;;;5079464;28;24414;-61
2021/10/15 03:05:41;;;;;;;6.07;5.57;;;;;;;;;;5070192;28;24476;-61
2021/10/15 03:08:07;;;;;;;5.03;4.63;;;;;;;;;;5073402;28;24510;-61
2021/10/15 03:10:32;;;;;;;6.20;5.70;;;;;;;;;;5075499;28;24411;-61
2021/10/15 03:12:57;;;;;;;6.10;5.60;;;;;;;;;;5082230;28;24450;-60
2021/10/15 03:15:22;;;;;;;5.95;5.45;;;;;;;;;;5085784;28;24406;-60
2021/10/15 03:17:47;;;;;;;5.90;5.40;;;;;;;;;;5085622;28;24418;-61
2021/10/15 03:20:12;;;;;;;5.60;5.20;;;;;;;;;;5082924;28;24460;-61
2021/10/15 03:22:37;;;;;;;6.60;6.10;;;;;;;;;;5086306;28;25178;-61
2021/10/15 03:25:03;;;;;;;7.95;7.35;;;;;;;;;;5083392;28;24410;-60
2021/10/15 03:27:28;;;;;;;6.53;6.03;;;;;;;;;;5081590;28;24437;-61
2021/10/15 03:29:53;;;;;;;6.40;5.90;;;;;;;;;;5075959;28;24971;-61
2021/10/15 03:32:18;;;;;;;6.53;6.03;;;;;;;;;;5079089;28;24459;-61
2021/10/15 03:34:43;;;;;;;5.83;5.40;;;;;;;;;;5076388;28;24437;-61
2021/10/15 03:37:08;;;;;;;7.18;6.63;;;;;;;;;;5080160;28;24438;-61
2021/10/15 03:39:34;;;;;;;5.77;5.30;;;;;;;;;;5073062;28;24410;-60
2021/10/15 03:41:59;;;;;;;5.50;5.00;;;;;;;;;;5070064;28;24464;-61
2021/10/15 03:44:24;;;;;;;6.45;5.95;;;;;;;;;;5080539;28;24511;-60
2021/10/15 03:46:49;;;;;;;6.82;6.32;;;;;;;;;;5073532;28;24426;-61
2021/10/15 03:49:14;;;;;;;7.03;6.50;;;;;;;;;;5084363;28;24399;-60
2021/10/15 03:51:39;;;;;;;5.93;5.53;;;;;;;;;;5074214;28;24526;-61
2021/10/15 03:54:05;;;;;;;6.00;5.60;;;;;;;;;;5078599;28;24830;-61
2021/10/15 03:56:30;;;;;;;6.30;5.80;;;;;;;;;;5080684;28;24415;-61
2021/10/15 03:58:55;;;;;;;5.80;5.20;;;;;;;;;;5067660;28;24478;-62
2021/10/15 04:01:20;;;;;;;6.22;5.72;;;;;;;;;;5078836;28;24428;-61
2021/10/15 04:03:45;;;;;;;5.60;5.20;;;;;;;;;;5081848;28;24522;-62
2021/10/15 04:06:10;;;;;;;5.80;5.30;;;;;;;;;;5081046;28;24468;-61
2021/10/15 04:08:36;;;;;;;5.50;5.10;;;;;;;;;;5074600;28;24437;-61
2021/10/15 04:11:01;;;;;;;5.63;5.23;;;;;;;;;;5071481;28;24410;-61
2021/10/15 04:13:26;;;;;;;5.00;4.60;;;;;;;;;;5078581;28;24431;-61
2021/10/15 04:15:51;;;;;;;5.38;4.97;;;;;;;;;;5075919;28;24425;-61
2021/10/15 04:18:17;;;;;;;5.60;5.20;;;;;;;;;;5070315;28;24415;-61
2021/10/15 04:20:42;;;;;;;4.75;4.40;;;;;;;;;;5072749;28;24417;-61
2021/10/15 04:23:07;;;;;;;5.72;5.22;;;;;;;;;;5071385;28;24495;-61
2021/10/15 04:25:32;;;;;;;5.50;5.10;;;;;;;;;;5074729;28;24987;-61
2021/10/15 04:27:57;;;;;;;5.50;5.10;;;;;;;;;;5089468;28;24679;-61
2021/10/15 04:30:22;;;;;;;4.67;4.30;;;;;;;;;;5079085;28;24567;-62
2021/10/15 04:32:47;;;;;;;4.50;4.20;;;;;;;;;;5108155;28;24442;-61
2021/10/15 04:35:13;;;;;;;4.30;4.00;;;;;;;;;;5084701;28;24448;-62
2021/10/15 04:37:39;;;;;;;4.63;4.23;;;;;;;;;;5073832;28;24526;-60
2021/10/15 04:40:04;;;;;;;4.50;4.20;;;;;;;;;;5073885;28;24501;-61
2021/10/15 04:42:29;;;;;;;4.70;4.40;;;;;;;;;;5075070;28;24475;-60
2021/10/15 04:44:54;;;;;;;4.43;4.03;;;;;;;;;;5073211;28;24925;-60
2021/10/15 04:47:20;;;;;;;5.30;4.90;;;;;;;;;;5085297;28;24449;-60
2021/10/15 04:49:45;;;;;;;4.50;4.20;;;;;;;;;;5082979;28;24953;-60
2021/10/15 04:52:10;;;;;;;3.40;3.20;;;;;;;;;;5080500;28;24418;-60
2021/10/15 04:54:35;;;;;;;4.18;3.88;;;;;;;;;;5079224;28;24438;-61
2021/10/15 04:57:00;;;;;;;4.35;3.95;;;;;;;;;;5058097;28;24410;-61
2021/10/15 04:59:25;;;;;;;3.83;3.53;;;;;;;;;;5065771;28;24906;-60
2021/10/15 05:01:52;;;;;;;4.40;4.10;;;;;;;;;;5062518;28;24430;-60
2021/10/15 05:04:17;;;;;;;4.57;4.20;;;;;;;;;;5058047;28;24411;-60
2021/10/15 05:06:43;;;;;;;3.93;3.63;;;;;;;;;;5072070;28;24466;-60
2021/10/15 05:11:33;;;;;;;3.40;3.20;;;;;;;;;;5067929;28;24460;-60
2021/10/15 05:13:58;;;;;;;4.20;3.80;;;;;;;;;;5073667;28;24457;-60
2021/10/15 05:16:23;;;;;;;3.40;3.20;;;;;;;;;;5096497;28;24459;-60
2021/10/15 05:18:48;;;;;;;3.60;3.30;;;;;;;;;;5070291;28;24963;-60
2021/10/15 05:21:14;;;;;;;3.10;2.90;;;;;;;;;;5076939;28;24454;-61
2021/10/15 05:23:39;;;;;;;3.10;2.90;;;;;;;;;;5067185;28;24730;-60
2021/10/15 05:26:04;;;;;;;3.20;3.00;;;;;;;;;;5061463;28;24422;-60
2021/10/15 05:28:29;;;;;;;3.27;3.07;;;;;;;;;;5061044;28;24442;-60
2021/10/15 05:30:54;;;;;;;3.30;3.10;;;;;;;;;;5058817;28;24960;-61
2021/10/15 05:33:20;;;;;;;3.40;3.20;;;;;;;;;;5057374;28;24553;-61
2021/10/15 05:35:45;;;;;;;3.20;3.00;;;;;;;;;;5059207;28;24478;-60
2021/10/15 05:38:10;;;;;;;3.40;3.20;;;;;;;;;;5063150;28;25030;-60
2021/10/15 05:40:35;;;;;;;3.50;3.30;;;;;;;;;;5062789;28;24399;-60
2021/10/15 05:43:00;;;;;;;3.70;3.40;;;;;;;;;;5060772;28;24538;-60
2021/10/15 05:45:26;;;;;;;3.30;3.05;;;;;;;;;;5077152;28;24398;-60
2021/10/15 05:47:51;;;;;;;4.60;4.10;;;;;;;;;;5090854;28;25314;-61
2021/10/15 05:50:16;;;;;;;4.73;4.33;;;;;;;;;;5102022;28;24409;-60
2021/10/15 05:52:44;;;;;;;4.50;4.10;;;;;;;;;;5103199;28;24405;-61
2021/10/15 06:00:21;;;;;;;3.80;3.50;;;;;;;;;;5066904;28;24424;-61
2021/10/15 06:02:46;;;;;;;4.70;4.30;;;;;;;;;;5074557;28;24449;-61
2021/10/15 06:09:43;;;;;;;4.05;3.75;;;;;;;;;;5066478;28;24382;-61
2021/10/15 06:14:14;;;;;;;3.90;3.60;;;;;;;;;;5076856;28;24490;-61
2021/10/15 06:16:30;;;;;;;3.42;3.20;;;;;;;;;;5085320;28;24441;-61
2021/10/15 06:19:05;;;;;;;4.40;4.10;;;;;;;;;;5070534;28;24405;-61
2021/10/15 06:21:30;;;;;;;3.92;3.53;;;;;;;;;;5075136;28;24835;-61
2021/10/15 06:23:55;;;;;;;3.60;3.40;;;;;;;;;;5076073;28;24971;-61
2021/10/15 06:26:20;;;;;;;4.45;4.05;;;;;;;;;;5065963;28;24769;-60
2021/10/15 06:28:46;;;;;;;3.53;3.22;;;;;;;;;;5066280;28;24541;-61
2021/10/15 06:31:11;;;;;;;3.47;3.20;;;;;;;;;;5071330;28;24454;-61
2021/10/15 06:33:36;;;;;;;3.72;3.42;;;;;;;;;;5067374;28;24774;-61
2021/10/15 06:36:01;;;;;;;3.45;3.25;;;;;;;;;;5074896;28;24421;-61
2021/10/15 06:38:26;;;;;;;3.25;3.05;;;;;;;;;;5073392;28;24422;-61
2021/10/15 06:40:51;;;;;;;2.90;2.70;;;;;;;;;;5069884;28;24789;-61
2021/10/15 06:43:16;;;;;;;3.00;2.80;;;;;;;;;;5069918;28;24461;-61
2021/10/15 06:45:42;;;;;;;2.23;2.13;;;;;;;;;;5074018;28;24414;-61
2021/10/15 06:48:07;;;;;;;2.80;2.60;;;;;;;;;;5071016;28;24943;-61
2021/10/15 06:50:32;;;;;;;2.77;2.60;;;;;;;;;;5079308;28;24414;-61
2021/10/15 06:52:57;;;;;;;2.20;2.10;;;;;;;;;;5070306;28;24487;-61
2021/10/15 06:55:23;;;;;;;2.57;2.37;;;;;;;;;;5074402;28;25261;-62
2021/10/15 06:57:49;;;;;;;2.60;2.40;;;;;;;;;;5077837;28;24830;-61
2021/10/15 07:00:15;;;;;;;2.10;2.00;;;;;;;;;;5060920;28;24767;-62
2021/10/15 07:02:41;;;;;;;1.90;1.80;;;;;;;;;;5059808;28;24442;-61
2021/10/15 07:05:06;;;;;;;2.80;2.60;;;;;;;;;;5082251;28;24539;-61
2021/10/15 07:07:32;;;;;;;2.55;2.35;;;;;;;;;;5080332;28;24852;-61
2021/10/15 07:09:59;;;;;;;2.20;2.10;;;;;;;;;;5064031;28;24433;-61
2021/10/15 07:12:25;;;;;;;3.45;2.50;;;;;;;;;;5063100;28;24383;-61
2021/10/15 07:14:50;;;;;;;2.60;2.40;;;;;;;;;;5062493;28;24970;-61
2021/10/15 07:17:15;;;;;;;2.30;2.10;;;;;;;;;;5063351;28;24821;-61
2021/10/15 07:19:40;;;;;;;2.78;2.58;;;;;;;;;;5066159;28;24489;-61
2021/10/15 07:22:05;;;;;;;3.10;2.85;;;;;;;;;;5079409;28;24426;-61
2021/10/15 07:24:31;;;;;;;2.60;2.40;;;;;;;;;;5078827;28;24825;-62
2021/10/15 07:26:56;;;;;;;2.40;2.30;;;;;;;;;;5080948;28;24397;-62
2021/10/15 07:29:21;;;;;;;2.40;2.20;;;;;;;;;;5084708;28;24398;-61
2021/10/15 07:31:46;;;;;;;2.40;2.20;;;;;;;;;;5082998;28;24979;-60
2021/10/15 07:34:12;;;;;;;2.20;2.10;;;;;;;;;;5083045;28;25122;-61
2021/10/15 07:36:38;;;;;;;2.97;2.00;;;;;;;;;;5080991;28;24406;-60
2021/10/15 07:39:04;;;;;;;2.55;2.17;;;;;;;;;;5079719;28;24432;-61
2021/10/15 07:41:29;;;;;;;2.22;2.13;;;;;;;;;;5079404;28;24702;-60
2021/10/15 07:43:55;;;;;;;2.67;2.47;;;;;;;;;;5069023;28;24420;-61
2021/10/15 07:46:20;;;;;;;2.07;1.97;;;;;;;;;;5105168;28;24402;-60
2021/10/15 07:48:45;;;;;;;2.50;2.40;;;;;;;;;;5095842;28;24494;-61
2021/10/15 07:51:10;;;;;;;3.67;3.38;;;;;;;;;;5059343;28;25118;-61
2021/10/15 07:53:35;;;;;;;2.87;2.67;;;;;;;;;;5058957;28;24414;-61
2021/10/15 07:56:01;;;;;;;1.93;1.83;;;;;;;;;;5058602;28;24563;-62
2021/10/15 07:58:26;;;;;;;2.08;1.98;;;;;;;;;;5063228;28;24933;-61
2021/10/15 08:00:51;;;;;;;2.20;2.10;;;;;;;;;;5080791;28;24402;-62
2021/10/15 08:03:16;;;;;;;2.47;2.27;;;;;;;;;;5081382;28;24445;-62
2021/10/15 08:05:41;;;;;;;3.00;2.70;;;;;;;;;;5084279;28;25002;-62
2021/10/15 08:08:07;;;;;;;3.53;2.20;;;;;;;;;;5078716;28;24833;-62
2021/10/15 08:10:32;;;;;;;2.60;2.10;;;;;;;;;;5080701;28;24451;-61
2021/10/15 08:12:57;;;;;;;2.93;2.63;;;;;;;;;;5078785;28;24406;-62
2021/10/15 08:15:23;;;;;;;1.90;1.70;;;;;;;;;;5082427;28;24841;-62
2021/10/15 08:17:48;;;;;;;2.80;2.60;;;;;;;;;;5084119;28;24386;-61
2021/10/15 08:20:14;;;;;;;1.60;1.50;;;;;;;;;;5082403;28;24803;-63
2021/10/15 08:22:39;;;;;;;1.80;1.70;;;;;;;;;;5071485;28;24496;-62
2021/10/15 08:25:05;;;;;;;1.70;1.60;;;;;;;;;;5057854;28;24424;-62
2021/10/15 08:27:30;;;;;;;1.67;1.40;;;;;;;;;;5060134;28;24431;-62
2021/10/15 08:29:55;;;;;;;1.55;1.45;;;;;;;;;;5059448;28;24967;-61
2021/10/15 08:32:21;;;;;;;1.63;1.53;;;;;;;;;;5070444;28;24406;-61
2021/10/15 08:34:46;;;;;;;2.05;1.85;;;;;;;;;;5083598;28;24521;-62
2021/10/15 08:37:11;;;;;;;1.90;1.80;;;;;;;;;;5082040;28;25394;-61
2021/10/15 08:39:36;;;;;;;1.80;1.70;;;;;;;;;;5078524;28;24447;-61
2021/10/15 08:42:02;;;;;;;1.70;1.60;;;;;;;;;;5079868;28;24942;-61
2021/10/15 08:44:36;;;;;;;2.97;2.10;;;;;;;;;;5096893;28;24558;-61
2021/10/15 08:47:02;;;;;;;1.55;1.45;;;;;;;;;;5103994;28;24493;-61
2021/10/15 08:49:27;;;;;;;1.53;1.43;;;;;;;;;;5104474;27;24477;-61
2021/10/15 08:51:53;;;;;;;1.85;1.75;;;;;;;;;;5102207;28;24802;-63
2021/10/15 08:54:18;;;;;;;1.83;1.60;;;;;;;;;;5083389;28;25248;-62
2021/10/15 08:56:45;;;;;;;2.00;1.80;;;;;;;;;;5079345;28;24462;-62
2021/10/15 08:59:10;;;;;;;1.63;1.35;;;;;;;;;;5080931;28;24457;-61
2021/10/15 09:01:42;;;;;;;1.70;1.60;;;;;;;;;;5083236;28;24485;-61
2021/10/15 09:04:07;;;;;;;1.58;1.48;;;;;;;;;;5079591;28;24459;-62
2021/10/15 09:06:36;;;;;;;1.70;1.60;;;;;;;;;;5081830;28;24447;-61
2021/10/15 09:09:02;;;;;;;1.80;1.70;;;;;;;;;;5077385;28;24452;-61
2021/10/15 09:11:34;;;;;;;2.30;2.10;;;;;;;;;;5081680;28;24517;-61
2021/10/15 09:14:07;;;;;;;1.70;1.60;;;;;;;;;;5079792;28;24460;-61
2021/10/15 09:16:51;;;;;;;2.20;2.00;;;;;;;;;;5083336;28;24543;-61
2021/10/15 09:19:24;;;;;;;2.10;1.60;;;;;;;;;;5079618;28;24382;-61
2021/10/15 09:22:10;;;;;;;1.80;1.65;;;;;;;;;;5079491;28;24521;-61
2021/10/15 09:24:44;;;;;;;1.90;1.63;;;;;;;;;;5076906;28;24524;-60
2021/10/15 09:27:10;;;;;;;1.40;1.30;;;;;;;;;;5083307;28;24398;-61
2021/10/15 09:29:46;;;;;;;1.40;1.30;;;;;;;;;;5083144;28;24410;-61
2021/10/15 09:32:12;;;;;;;1.70;1.60;;;;;;;;;;5081523;28;24401;-61
2021/10/15 09:34:38;;;;;;;2.92;1.80;;;;;;;;;;5082667;28;25489;-61
2021/10/15 09:37:09;;;;;;;1.70;1.40;;;;;;;;;;5080073;28;24410;-61
2021/10/15 09:39:35;;;;;;;1.50;1.40;;;;;;;;;;5085215;28;24519;-61
2021/10/15 09:42:00;;;;;;;1.60;1.50;;;;;;;;;;5092508;28;24431;-61
2021/10/15 09:44:33;;;;;;;1.50;1.40;;;;;;;;;;5107434;28;24489;-61
2021/10/15 09:47:18;;;;;;;1.50;1.40;;;;;;;;;;5091841;28;24418;-61
2021/10/15 09:50:12;;;;;;;1.70;1.60;;;;;;;;;;5072210;28;24459;-62
2021/10/15 09:52:41;;;;;;;1.73;1.50;;;;;;;;;;5068218;28;24554;-61
2021/10/15 09:55:09;;;;;;;1.50;1.25;;;;;;;;;;5084838;28;24421;-61
2021/10/15 09:57:36;;;;;;;1.35;1.25;;;;;;;;;;5086711;28;25220;-61
2021/10/15 10:00:03;;;;;;;1.40;1.30;;;;;;;;;;5084022;28;24413;-61
2021/10/15 10:02:28;;;;;;;2.85;1.50;;;;;;;;;;5087023;28;25148;-61
2021/10/15 10:04:55;;;;;;;1.80;1.60;;;;;;;;;;5083154;28;24402;-61
2021/10/15 10:07:21;;;;;;;1.70;1.60;;;;;;;;;;5081422;28;25287;-62
2021/10/15 10:09:46;;;;;;;2.00;1.40;;;;;;;;;;5081184;28;24934;-62
2021/10/15 10:12:12;;;;;;;1.55;1.45;;;;;;;;;;5086153;28;24414;-62
2021/10/15 10:14:37;;;;;;;1.90;1.30;;;;;;;;;;5086800;28;24494;-62
2021/10/15 10:17:02;;;;;;;1.70;1.60;;;;;;;;;;5084363;28;24900;-62
2021/10/15 10:19:29;;;;;;;1.53;1.43;;;;;;;;;;5083012;28;24391;-62
2021/10/15 10:21:54;;;;;;;1.60;1.50;;;;;;;;;;5080678;28;24441;-62
2021/10/15 10:24:25;;;;;;;1.80;1.53;;;;;;;;;;5082943;28;25165;-62
2021/10/15 10:26:55;;;;;;;1.40;1.30;;;;;;;;;;5086128;28;24874;-62
2021/10/15 10:29:21;;;;;;;2.38;1.50;;;;;;;;;;5068857;28;24417;-62
2021/10/15 10:31:46;;;;;;;1.63;1.50;;;;;;;;;;5066203;28;24505;-62
2021/10/15 10:34:15;;;;;;;1.80;1.33;;;;;;;;;;5060820;28;24421;-62
2021/10/15 10:36:41;;;;;;;1.63;1.38;;;;;;;;;;5060177;28;24812;-62
2021/10/15 10:39:18;;;;;;;1.40;1.30;;;;;;;;;;5073679;28;24491;-60
2021/10/15 10:42:03;;;;;;;1.23;1.13;;;;;;;;;;5101675;28;24920;-62
2021/10/15 10:44:28;;;;;;;3.80;1.20;;;;;;;;;;5103846;28;24636;-62
2021/10/15 10:47:05;;;;;;;1.40;1.20;;;;;;;;;;5101600;28;24421;-60
2021/10/15 10:49:30;;;;;;;1.10;1.10;;;;;;;;;;5090418;28;24472;-60
2021/10/15 10:52:12;;;;;;;1.20;1.10;;;;;;;;;;5080418;28;24422;-61
2021/10/15 10:54:38;;;;;;;1.37;1.27;;;;;;;;;;5085981;28;24444;-60
2021/10/15 10:57:13;;;;;;;3.30;1.38;;;;;;;;;;5083442;28;25052;-61
2021/10/15 10:59:39;;;;;;;2.20;1.10;;;;;;;;;;5079649;28;24414;-61
2021/10/15 11:02:10;;;;;;;2.40;1.10;;;;;;;;;;5080299;28;24745;-61
2021/10/15 11:04:35;;;;;;;1.67;1.13;;;;;;;;;;5082169;28;24439;-61
2021/10/15 11:07:15;;;;;;;1.25;1.10;;;;;;;;;;5085430;28;24394;-61
2021/10/15 11:09:48;;;;;;;1.20;1.10;;;;;;;;;;5084931;28;24415;-61
2021/10/15 11:12:14;;;;;;;2.20;1.20;;;;;;;;;;5083540;28;25090;-60
2021/10/15 11:14:53;;;;;;;1.10;1.00;;;;;;;;;;5080232;28;24771;-61
2021/10/15 11:17:23;;;;;;;1.40;1.30;;;;;;;;;;5080056;28;24389;-61
2021/10/15 11:19:48;;;;;;;1.30;1.20;;;;;;;;;;5064796;28;24425;-60
2021/10/15 11:22:13;;;;;;;1.00;1.00;;;;;;;;;;5063467;28;24510;-61
2021/10/15 11:24:38;;;;;;;1.70;1.20;;;;;;;;;;5065399;28;24460;-61
2021/10/15 11:27:13;;;;;;;2.00;1.20;;;;;;;;;;5062942;28;24396;-62
2021/10/15 11:29:49;;;;;;;1.23;1.20;;;;;;;;;;5070085;28;24412;-61
2021/10/15 11:32:26;;;;;;;1.20;1.10;;;;;;;;;;5079904;28;24443;-61
2021/10/15 11:35:05;;;;;;;1.77;1.67;;;;;;;;;;5081017;28;24414;-61
2021/10/15 11:37:40;;;;;;;1.30;1.20;;;;;;;;;;5083139;28;24943;-61
2021/10/15 11:40:23;;;;;;;1.45;1.33;;;;;;;;;;5081882;28;24572;-60
2021/10/15 11:42:49;;;;;;;2.30;1.70;;;;;;;;;;5079430;28;25015;-60
2021/10/15 11:45:27;;;;;;;2.10;1.47;;;;;;;;;;5079118;28;24432;-61
2021/10/15 11:47:59;;;;;;;2.65;1.83;;;;;;;;;;5079935;28;24383;-61
2021/10/15 11:50:41;;;;;;;1.90;1.80;;;;;;;;;;5074738;28;24414;-61
2021/10/15 11:53:08;;;;;;;1.85;1.60;;;;;;;;;;5062277;28;24382;-62
2021/10/15 11:55:35;;;;;;;1.90;1.70;;;;;;;;;;5064292;28;25152;-62
2021/10/15 11:58:19;;;;;;;1.70;1.60;;;;;;;;;;5065418;28;24955;-62
2021/10/15 12:01:03;;;;;;;3.35;2.00;;;;;;;;;;5080264;28;24493;-61
2021/10/15 12:03:39;;;;;;;2.80;1.80;;;;;;;;;;5082396;28;24523;-62
2021/10/15 12:06:10;;;;;;;1.50;1.40;;;;;;;;;;5082201;28;24478;-61
2021/10/15 12:08:36;;;;;;;1.70;1.60;;;;;;;;;;5083744;28;24464;-62
2021/10/15 12:11:01;;;;;;;2.80;1.80;;;;;;;;;;5082322;28;24483;-62
2021/10/15 12:13:26;;;;;;;1.70;1.60;;;;;;;;;;5080400;28;24525;-61
2021/10/15 12:15:51;;;;;;;1.70;1.60;;;;;;;;;;5080222;28;24406;-62
2021/10/15 12:18:18;;;;;;;1.77;1.67;;;;;;;;;;5069636;28;24529;-61
2021/10/15 12:20:43;;;;;;;1.60;1.50;;;;;;;;;;5083010;28;24422;-61
2021/10/15 12:23:09;;;;;;;1.70;1.60;;;;;;;;;;5082180;28;24399;-62
2021/10/15 12:25:38;;;;;;;2.10;1.90;;;;;;;;;;5084294;28;24424;-61
2021/10/15 12:28:13;;;;;;;1.80;1.70;;;;;;;;;;5079479;28;24456;-62
2021/10/15 12:30:39;;;;;;;1.67;1.58;;;;;;;;;;5075887;28;25067;-62
2021/10/15 12:33:08;;;;;;;2.00;1.80;;;;;;;;;;5079834;28;24489;-61
2021/10/15 12:35:33;;;;;;;2.10;1.50;;;;;;;;;;5081990;28;24391;-61
2021/10/15 12:38:00;;;;;;;1.83;1.50;;;;;;;;;;5082189;28;24464;-61
2021/10/15 12:40:31;;;;;;;2.17;1.60;;;;;;;;;;5104072;28;24473;-61
2021/10/15 12:43:03;;;;;;;1.85;1.73;;;;;;;;;;5100145;28;24393;-62
2021/10/15 12:45:58;;;;;;;2.40;1.98;;;;;;;;;;5098793;28;24474;-62
2021/10/15 12:48:25;;;;;;;2.10;1.90;;;;;;;;;;5074283;27;24519;-61
2021/10/15 12:50:56;;;;;;;2.00;1.90;;;;;;;;;;5060999;28;24407;-61
2021/10/15 12:53:22;;;;;;;2.00;1.90;;;;;;;;;;5063346;28;24426;-61
2021/10/15 12:55:55;;;;;;;2.00;1.80;;;;;;;;;;5063149;28;24726;-61
2021/10/15 12:58:21;;;;;;;1.90;1.80;;;;;;;;;;5077867;28;24512;-61
2021/10/15 13:00:56;;;;;;;1.90;1.80;;;;;;;;;;5082055;28;24536;-61
2021/10/15 13:03:23;;;;;;;1.90;1.80;;;;;;;;;;5071384;28;24468;-60
2021/10/15 13:05:49;;;;;;;2.10;1.90;;;;;;;;;;5083036;28;24436;-61
2021/10/15 13:08:17;;;;;;;1.80;1.70;;;;;;;;;;5071427;28;24592;-60
2021/10/15 13:10:43;;;;;;;1.80;1.70;;;;;;;;;;5076482;28;25058;-60
2021/10/15 13:13:08;;;;;;;2.30;2.00;;;;;;;;;;5068799;28;24431;-61
2021/10/15 13:15:34;;;;;;;2.30;2.10;;;;;;;;;;5063529;28;24971;-61
2021/10/15 13:17:59;;;;;;;2.30;2.10;;;;;;;;;;5066458;28;24427;-61
2021/10/15 13:20:27;;;;;;;2.43;2.23;;;;;;;;;;5062693;28;24929;-59
2021/10/15 13:22:53;;;;;;;2.00;1.90;;;;;;;;;;5062769;28;24455;-59
2021/10/15 13:25:19;;;;;;;2.50;2.30;;;;;;;;;;5059078;28;24982;-60
2021/10/15 13:27:44;;;;;;;2.20;2.10;;;;;;;;;;5060504;28;24456;-60
2021/10/15 13:30:10;;;;;;;1.70;1.60;;;;;;;;;;5060763;28;24893;-60
2021/10/15 13:32:35;;;;;;;2.40;2.20;;;;;;;;;;5062854;28;24994;-60
2021/10/15 13:35:01;;;;;;;2.90;2.70;;;;;;;;;;5060715;28;25106;-60
2021/10/15 13:37:30;;;;;;;2.60;2.30;;;;;;;;;;5083349;28;24405;-60
2021/10/15 13:39:58;;;;;;;2.53;2.33;;;;;;;;;;5081183;28;24461;-60
2021/10/15 13:45:25;;;;;;;3.40;2.60;;;;;;;;;;5080739;28;24385;-62
2021/10/15 13:50:35;;;;;;;2.80;2.60;;;;;;;;;;5081899;28;24872;-61
2021/10/15 13:53:01;;;;;;;2.50;2.30;;;;;;;;;;5077175;28;24409;-60
2021/10/15 13:55:26;;;;;;;3.33;3.03;;;;;;;;;;5079253;28;24387;-61
2021/10/15 13:57:53;;;;;;;3.50;2.70;;;;;;;;;;5078724;28;24973;-60
2021/10/15 14:00:25;;;;;;;2.90;2.70;;;;;;;;;;5081224;28;24955;-61
2021/10/15 14:02:54;;;;;;;2.70;2.50;;;;;;;;;;5082545;28;24912;-61
2021/10/15 14:05:19;;;;;;;3.70;3.08;;;;;;;;;;5083130;28;24393;-61
2021/10/15 14:07:45;;;;;;;3.17;2.87;;;;;;;;;;5078801;28;24447;-60
2021/10/15 14:10:10;;;;;;;3.10;2.90;;;;;;;;;;5075232;28;24983;-61
2021/10/15 14:12:35;;;;;;;3.67;3.37;;;;;;;;;;5079189;28;24896;-60
2021/10/15 14:15:01;;;;;;;3.60;3.20;;;;;;;;;;5080465;28;25064;-60
2021/10/15 14:17:27;;;;;;;3.43;3.13;;;;;;;;;;5082139;28;24393;-61
2021/10/15 14:19:52;;;;;;;3.37;3.07;;;;;;;;;;5066189;28;24548;-61
2021/10/15 14:22:18;;;;;;;3.50;3.20;;;;;;;;;;5062262;28;24756;-60
2021/10/15 14:24:43;;;;;;;3.10;2.90;;;;;;;;;;5062286;28;24399;-61
2021/10/15 14:27:08;;;;;;;3.40;3.10;;;;;;;;;;5063691;28;24990;-60
2021/10/15 14:29:34;;;;;;;3.40;3.20;;;;;;;;;;5067541;28;24423;-60
2021/10/15 14:31:59;;;;;;;3.47;3.17;;;;;;;;;;5083935;28;24544;-60
2021/10/15 14:34:24;;;;;;;3.77;3.47;;;;;;;;;;5083709;28;24963;-61
2021/10/15 14:36:50;;;;;;;3.53;3.23;;;;;;;;;;5103931;28;24428;-61
2021/10/15 14:39:15;;;;;;;3.90;3.60;;;;;;;;;;5073106;28;24940;-61
2021/10/15 14:41:40;;;;;;;4.00;3.60;;;;;;;;;;5066610;28;24414;-61
2021/10/15 14:44:06;;;;;;;4.20;3.80;;;;;;;;;;5061265;28;24437;-61
2021/10/15 14:46:31;;;;;;;3.57;3.27;;;;;;;;;;5079718;28;25091;-60
2021/10/15 14:48:57;;;;;;;3.65;3.35;;;;;;;;;;5076488;28;24411;-61
2021/10/15 14:51:22;;;;;;;3.65;3.35;;;;;;;;;;5064295;28;24418;-60
2021/10/15 14:53:47;;;;;;;4.20;3.90;;;;;;;;;;5073834;28;24489;-60
2021/10/15 14:56:12;;;;;;;3.95;3.65;;;;;;;;;;5075845;28;24414;-60
2021/10/15 14:58:38;;;;;;;4.97;4.47;;;;;;;;;;5063613;28;24580;-60
2021/10/15 15:01:04;;;;;;;5.20;4.28;;;;;;;;;;5063580;28;24437;-59